createdAt,value
2022-12-04T00:00:13.166Z,15.25
2022-12-04T00:06:59.275Z,14.38
2022-12-04T00:13:47.451Z,15.23
2022-12-04T00:20:32.874Z,14.23
2022-12-04T00:27:18.299Z,14.50
2022-12-04T00:34:08.314Z,15.45
2022-12-04T00:40:55.098Z,15.90
2022-12-04T00:47:40.573Z,15.80
2022-12-04T00:54:28.856Z,15.52
2022-12-04T01:01:17.623Z,15.93
2022-12-04T01:08:03.248Z,16.23
2022-12-04T01:14:51.667Z,16.00
2022-12-04T01:21:37.182Z,15.65
2022-12-04T01:28:23.160Z,15.40
2022-12-04T01:35:12.264Z,15.80
2022-12-04T01:41:57.745Z,15.65
2022-12-04T01:48:48.959Z,16.23
2022-12-04T01:55:37.452Z,15.18
2022-12-04T02:02:29.416Z,16.40
2022-12-04T02:09:15.094Z,16.20
2022-12-04T02:16:17.103Z,16.38
2022-12-04T02:23:37.307Z,15.77
2022-12-04T02:30:25.715Z,15.85
2022-12-04T02:37:17.488Z,16.17
2022-12-04T02:44:10.375Z,16.40
2022-12-04T02:51:01.104Z,17.38
2022-12-04T02:57:52.399Z,16.80
2022-12-04T03:04:39.298Z,16.58
2022-12-04T03:18:21.531Z,15.45
2022-12-04T03:25:09.157Z,16.88
2022-12-04T03:32:05.282Z,16.83
2022-12-04T03:38:58.259Z,16.33
2022-12-04T04:06:50.524Z,15.85
2022-12-04T04:13:54.574Z,16.95
2022-12-04T04:20:58.884Z,15.48
2022-12-04T04:27:54.639Z,15.18
2022-12-04T04:34:48.379Z,15.50
2022-12-04T04:41:43.344Z,14.88
2022-12-04T04:48:35.677Z,14.13
2022-12-04T04:55:23.341Z,13.82
2022-12-04T05:02:08.813Z,14.07
2022-12-04T05:08:56.863Z,14.05
2022-12-04T05:15:43.020Z,13.85
2022-12-04T05:22:31.836Z,13.90
2022-12-04T05:29:19.832Z,12.38
2022-12-04T05:36:09.559Z,13.40
2022-12-04T05:42:54.923Z,14.07
2022-12-04T05:49:42.962Z,12.98
2022-12-04T05:56:28.495Z,12.75
2022-12-04T06:03:14.046Z,13.38
2022-12-04T06:10:02.377Z,13.40
2022-12-04T06:16:49.997Z,13.63
2022-12-04T06:23:35.470Z,13.63
2022-12-04T06:30:23.603Z,12.98
2022-12-04T06:37:09.523Z,12.85
2022-12-04T06:43:55.384Z,12.82
2022-12-04T06:50:43.689Z,13.35
2022-12-04T06:57:29.143Z,13.52
2022-12-04T07:04:14.532Z,12.93
2022-12-04T07:11:05.943Z,13.27
2022-12-04T07:17:51.500Z,13.30
2022-12-04T07:24:37.519Z,13.07
2022-12-04T07:31:28.337Z,13.23
2022-12-04T07:38:13.831Z,13.32
2022-12-04T07:44:59.327Z,13.07
2022-12-04T07:51:47.320Z,13.35
2022-12-04T07:58:32.765Z,13.85
2022-12-04T08:05:18.529Z,15.30
2022-12-04T08:12:06.749Z,15.82
2022-12-04T08:18:52.307Z,15.32
2022-12-04T08:25:38.123Z,16.90
2022-12-04T08:32:26.953Z,16.70
2022-12-04T08:39:13.850Z,16.63
2022-12-04T08:52:48.570Z,16.63
2022-12-04T08:59:34.153Z,17.48
2022-12-04T09:06:20.368Z,17.40
2022-12-04T09:13:08.959Z,17.17
2022-12-04T09:19:59.244Z,16.77
2022-12-04T09:26:46.444Z,17.88
2022-12-04T09:33:35.443Z,17.83
2022-12-04T09:40:37.250Z,17.85
2022-12-04T09:47:27.952Z,19.77
2022-12-04T09:54:21.044Z,19.85
2022-12-04T10:01:08.195Z,22.90
2022-12-04T10:08:08.628Z,19.23
2022-12-04T10:15:15.236Z,17.65
2022-12-04T10:22:14.811Z,18.67
2022-12-04T10:29:07.275Z,17.08
2022-12-04T10:35:57.608Z,16.95
2022-12-04T10:42:52.664Z,18.20
2022-12-04T10:49:40.662Z,17.58
2022-12-04T10:56:30.135Z,17.48
2022-12-04T11:03:28.778Z,18.08
2022-12-04T11:10:29.603Z,18.45
2022-12-04T11:17:22.490Z,18.08
2022-12-04T11:24:08.781Z,18.20
2022-12-04T11:30:57.429Z,18.08
2022-12-04T11:37:45.763Z,18.67
2022-12-04T11:44:34.138Z,17.75
2022-12-04T11:51:32.574Z,18.60
2022-12-04T11:58:42.456Z,17.17
2022-12-04T12:06:00.245Z,17.90
2022-12-04T12:13:02.344Z,17.05
2022-12-04T12:20:18.196Z,16.23
2022-12-04T12:27:28.245Z,17.75
2022-12-04T12:34:19.306Z,26.52
2022-12-04T12:41:13.651Z,15.80
2022-12-04T12:48:03.554Z,17.27
2022-12-04T12:54:57.313Z,16.95
2022-12-04T13:01:55.964Z,16.42
2022-12-04T13:08:51.079Z,17.00
2022-12-04T13:15:44.651Z,17.40
2022-12-04T13:22:42.687Z,17.20
2022-12-04T13:29:48.824Z,18.50
2022-12-04T13:37:04.832Z,17.58
2022-12-04T13:43:54.157Z,15.77
2022-12-04T13:50:42.033Z,17.02
2022-12-04T13:57:28.297Z,17.13
2022-12-04T14:04:28.990Z,17.17
2022-12-04T14:11:20.109Z,18.70
2022-12-04T14:18:09.858Z,18.75
2022-12-04T14:25:11.110Z,18.00
2022-12-04T14:31:59.045Z,18.23
2022-12-04T14:38:48.867Z,18.10
2022-12-04T14:45:48.419Z,18.20
2022-12-04T14:52:41.928Z,18.55
2022-12-04T14:59:37.363Z,18.70
2022-12-04T15:06:30.936Z,18.23
2022-12-04T15:13:21.480Z,18.08
2022-12-04T15:20:19.995Z,18.58
2022-12-04T15:27:10.260Z,18.98
2022-12-04T15:34:00.848Z,17.92
2022-12-04T15:40:55.859Z,18.63
2022-12-04T15:47:58.247Z,18.98
2022-12-04T15:54:47.331Z,18.35
2022-12-04T16:01:43.295Z,18.52
2022-12-04T16:08:35.899Z,18.80
2022-12-04T16:15:21.372Z,20.63
2022-12-04T16:22:20.363Z,20.63
2022-12-04T16:29:08.716Z,19.42
2022-12-04T16:35:54.117Z,20.13
2022-12-04T16:42:39.733Z,24.95
2022-12-04T16:49:27.788Z,34.72
2022-12-04T16:56:13.924Z,47.17
2022-12-04T17:03:00.117Z,23.77
2022-12-04T17:09:48.693Z,21.25
2022-12-04T17:16:34.114Z,21.40
2022-12-04T17:23:19.736Z,19.70
2022-12-04T17:30:10.084Z,25.63
2022-12-04T17:36:56.356Z,20.45
2022-12-04T17:43:41.815Z,22.07
2022-12-04T17:50:30.227Z,20.92
2022-12-04T17:57:16.966Z,20.08
2022-12-04T18:04:04.723Z,20.52
2022-12-04T18:10:53.169Z,20.30
2022-12-04T18:17:39.758Z,20.92
2022-12-04T18:24:26.657Z,19.63
2022-12-04T18:38:00.572Z,20.20
2022-12-04T18:44:46.279Z,22.00
2022-12-04T18:51:39.649Z,22.10
2022-12-04T18:58:25.212Z,22.92
2022-12-04T19:05:11.566Z,21.58
2022-12-04T19:11:59.684Z,22.00
2022-12-04T19:18:46.831Z,21.13
2022-12-04T19:32:20.066Z,30.23
2022-12-04T19:39:08.804Z,22.58
2022-12-04T19:45:54.274Z,21.48
2022-12-04T19:52:42.655Z,21.85
2022-12-04T19:59:33.034Z,21.33
2022-12-04T20:06:24.944Z,20.90
2022-12-04T20:13:14.475Z,21.50
2022-12-04T20:19:59.926Z,21.40
2022-12-04T20:26:47.604Z,21.48
2022-12-04T20:33:35.651Z,21.27
2022-12-04T20:40:21.557Z,22.30
2022-12-04T20:47:07.068Z,21.70
2022-12-04T20:53:58.062Z,23.80
2022-12-04T21:00:43.949Z,22.75
2022-12-04T21:07:29.522Z,21.42
2022-12-04T21:14:34.394Z,21.08
2022-12-04T21:21:20.505Z,19.83
2022-12-04T21:28:05.955Z,19.93
2022-12-04T21:34:54.277Z,21.52
2022-12-04T21:41:52.256Z,20.55
2022-12-04T21:48:39.299Z,20.58
2022-12-04T21:55:27.588Z,20.70
2022-12-04T22:02:14.164Z,25.35
2022-12-04T22:08:59.668Z,20.95
2022-12-04T22:15:47.795Z,20.70
2022-12-04T22:22:33.284Z,20.90
2022-12-04T22:29:48.652Z,20.92
2022-12-04T22:36:30.793Z,20.63
2022-12-04T22:43:16.219Z,21.70
2022-12-04T22:50:01.611Z,20.35
2022-12-04T22:56:49.669Z,21.35
2022-12-04T23:03:35.234Z,21.13
2022-12-04T23:10:20.766Z,20.63
2022-12-04T23:17:08.833Z,21.02
2022-12-04T23:23:57.192Z,21.00
2022-12-04T23:30:49.156Z,21.35
2022-12-04T23:37:37.209Z,21.25
2022-12-04T23:44:22.668Z,21.30
2022-12-04T23:51:08.307Z,21.52
2022-12-04T23:57:56.810Z,20.92
